sensor_id;sensor_type;location;lat;lon;timestamp;temperature;humidity
63960;DHT22;50136;51.374;0.096;2023-08-31T00:04:28;13.90;99.90
63960;DHT22;50136;51.374;0.096;2023-08-31T00:14:30;13.60;99.90
63960;DHT22;50136;51.374;0.096;2023-08-31T00:24:33;13.40;99.90
63960;DHT22;50136;51.374;0.096;2023-08-31T00:34:35;13.30;99.90
63960;DHT22;50136;51.374;0.096;2023-08-31T00:44:38;13.10;99.90
63960;DHT22;50136;51.374;0.096;2023-08-31T00:54:41;13.10;99.90
63960;DHT22;50136;51.374;0.096;2023-08-31T01:04:49;12.90;99.90
63960;DHT22;50136;51.374;0.096;2023-08-31T01:14:59;12.80;99.90
63960;DHT22;50136;51.374;0.096;2023-08-31T01:25:03;12.70;99.90
63960;DHT22;50136;51.374;0.096;2023-08-31T01:35:07;12.60;99.90
63960;DHT22;50136;51.374;0.096;2023-08-31T01:45:11;12.50;99.90
63960;DHT22;50136;51.374;0.096;2023-08-31T01:55:15;12.50;99.90
63960;DHT22;50136;51.374;0.096;2023-08-31T02:05:18;12.40;99.90
63960;DHT22;50136;51.374;0.096;2023-08-31T02:15:20;12.30;99.90
63960;DHT22;50136;51.374;0.096;2023-08-31T02:25:23;12.10;99.90
63960;DHT22;50136;51.374;0.096;2023-08-31T02:35:25;12.10;99.90
63960;DHT22;50136;51.374;0.096;2023-08-31T02:45:29;12.00;99.90
63960;DHT22;50136;51.374;0.096;2023-08-31T02:55:32;12.10;99.90
63960;DHT22;50136;51.374;0.096;2023-08-31T03:05:36;12.10;99.90
63960;DHT22;50136;51.374;0.096;2023-08-31T03:15:38;12.10;99.90
63960;DHT22;50136;51.374;0.096;2023-08-31T03:25:41;12.10;99.90
63960;DHT22;50136;51.374;0.096;2023-08-31T03:35:43;12.10;99.90
63960;DHT22;50136;51.374;0.096;2023-08-31T03:45:47;12.00;99.90
63960;DHT22;50136;51.374;0.096;2023-08-31T03:55:49;11.90;99.90
63960;DHT22;50136;51.374;0.096;2023-08-31T04:05:55;12.00;99.90
63960;DHT22;50136;51.374;0.096;2023-08-31T04:15:57;12.00;99.90
63960;DHT22;50136;51.374;0.096;2023-08-31T04:26:09;12.00;99.90
63960;DHT22;50136;51.374;0.096;2023-08-31T04:36:11;12.00;99.90
63960;DHT22;50136;51.374;0.096;2023-08-31T04:46:15;12.00;99.90
63960;DHT22;50136;51.374;0.096;2023-08-31T04:56:17;12.00;99.90
63960;DHT22;50136;51.374;0.096;2023-08-31T05:06:21;11.90;99.90
63960;DHT22;50136;51.374;0.096;2023-08-31T05:16:23;11.90;99.90
63960;DHT22;50136;51.374;0.096;2023-08-31T05:26:26;11.90;99.90
63960;DHT22;50136;51.374;0.096;2023-08-31T05:36:28;12.00;99.90
63960;DHT22;50136;51.374;0.096;2023-08-31T05:46:32;12.10;99.90
63960;DHT22;50136;51.374;0.096;2023-08-31T05:56:34;12.20;99.90
63960;DHT22;50136;51.374;0.096;2023-08-31T06:06:37;12.30;99.90
63960;DHT22;50136;51.374;0.096;2023-08-31T06:16:39;12.60;99.90
63960;DHT22;50136;51.374;0.096;2023-08-31T06:26:42;12.80;99.90
63960;DHT22;50136;51.374;0.096;2023-08-31T06:36:44;13.10;99.90
63960;DHT22;50136;51.374;0.096;2023-08-31T06:46:49;13.30;99.90
63960;DHT22;50136;51.374;0.096;2023-08-31T06:56:51;13.70;99.90
63960;DHT22;50136;51.374;0.096;2023-08-31T07:06:54;14.00;99.90
63960;DHT22;50136;51.374;0.096;2023-08-31T07:16:56;14.00;99.90
63960;DHT22;50136;51.374;0.096;2023-08-31T07:27:01;14.30;99.90
63960;DHT22;50136;51.374;0.096;2023-08-31T07:37:03;14.60;99.90
63960;DHT22;50136;51.374;0.096;2023-08-31T07:47:06;14.80;99.90
63960;DHT22;50136;51.374;0.096;2023-08-31T07:57:08;15.50;99.90
63960;DHT22;50136;51.374;0.096;2023-08-31T08:07:12;16.20;99.90
63960;DHT22;50136;51.374;0.096;2023-08-31T08:17:14;16.80;99.90
63960;DHT22;50136;51.374;0.096;2023-08-31T08:27:17;16.90;99.90
63960;DHT22;50136;51.374;0.096;2023-08-31T08:37:19;16.90;99.90
63960;DHT22;50136;51.374;0.096;2023-08-31T08:47:23;17.10;99.90
63960;DHT22;50136;51.374;0.096;2023-08-31T08:57:25;17.30;99.90
63960;DHT22;50136;51.374;0.096;2023-08-31T09:07:35;17.40;99.90
63960;DHT22;50136;51.374;0.096;2023-08-31T09:17:41;17.40;99.90
63960;DHT22;50136;51.374;0.096;2023-08-31T09:27:45;17.20;99.90
63960;DHT22;50136;51.374;0.096;2023-08-31T09:37:55;17.30;99.90
63960;DHT22;50136;51.374;0.096;2023-08-31T09:47:59;17.30;99.90
63960;DHT22;50136;51.374;0.096;2023-08-31T09:58:02;17.10;99.90
63960;DHT22;50136;51.374;0.096;2023-08-31T10:08:19;17.00;99.90
63960;DHT22;50136;51.374;0.096;2023-08-31T10:18:21;16.70;99.90
63960;DHT22;50136;51.374;0.096;2023-08-31T10:28:26;16.80;99.90
63960;DHT22;50136;51.374;0.096;2023-08-31T10:38:29;17.10;99.90
63960;DHT22;50136;51.374;0.096;2023-08-31T10:48:49;18.00;99.90
63960;DHT22;50136;51.374;0.096;2023-08-31T10:58:57;19.30;99.90
63960;DHT22;50136;51.374;0.096;2023-08-31T11:09:00;19.40;99.90
63960;DHT22;50136;51.374;0.096;2023-08-31T11:19:03;19.60;99.90
63960;DHT22;50136;51.374;0.096;2023-08-31T11:29:07;18.80;99.90
63960;DHT22;50136;51.374;0.096;2023-08-31T11:39:10;19.30;99.90
63960;DHT22;50136;51.374;0.096;2023-08-31T11:49:13;19.40;99.90
63960;DHT22;50136;51.374;0.096;2023-08-31T11:59:16;19.30;99.90
63960;DHT22;50136;51.374;0.096;2023-08-31T12:09:20;19.10;99.90
63960;DHT22;50136;51.374;0.096;2023-08-31T12:19:26;19.10;99.90
63960;DHT22;50136;51.374;0.096;2023-08-31T12:29:30;19.40;99.90
63960;DHT22;50136;51.374;0.096;2023-08-31T12:39:33;18.70;99.90
63960;DHT22;50136;51.374;0.096;2023-08-31T12:49:36;18.90;99.90
63960;DHT22;50136;51.374;0.096;2023-08-31T12:59:38;19.00;99.90
63960;DHT22;50136;51.374;0.096;2023-08-31T13:09:42;18.60;99.90
63960;DHT22;50136;51.374;0.096;2023-08-31T13:19:44;18.30;99.90
63960;DHT22;50136;51.374;0.096;2023-08-31T13:29:47;17.90;99.90
63960;DHT22;50136;51.374;0.096;2023-08-31T13:39:50;17.80;99.90
63960;DHT22;50136;51.374;0.096;2023-08-31T13:49:54;18.00;99.90
63960;DHT22;50136;51.374;0.096;2023-08-31T13:59:56;17.70;99.90
63960;DHT22;50136;51.374;0.096;2023-08-31T14:09:59;17.20;99.90
63960;DHT22;50136;51.374;0.096;2023-08-31T14:20:02;17.90;99.90
63960;DHT22;50136;51.374;0.096;2023-08-31T14:30:06;18.00;99.90
63960;DHT22;50136;51.374;0.096;2023-08-31T14:40:09;17.70;99.90
63960;DHT22;50136;51.374;0.096;2023-08-31T14:50:13;17.50;99.90
63960;DHT22;50136;51.374;0.096;2023-08-31T15:00:16;17.10;99.90
63960;DHT22;50136;51.374;0.096;2023-08-31T15:10:20;17.20;99.90
63960;DHT22;50136;51.374;0.096;2023-08-31T15:20:22;17.20;99.90
63960;DHT22;50136;51.374;0.096;2023-08-31T15:30:26;17.00;99.90
63960;DHT22;50136;51.374;0.096;2023-08-31T15:40:28;17.30;99.90
63960;DHT22;50136;51.374;0.096;2023-08-31T15:50:31;17.10;99.90
63960;DHT22;50136;51.374;0.096;2023-08-31T16:00:33;16.80;99.90
63960;DHT22;50136;51.374;0.096;2023-08-31T16:10:37;16.70;99.90
63960;DHT22;50136;51.374;0.096;2023-08-31T16:20:39;16.70;99.90
63960;DHT22;50136;51.374;0.096;2023-08-31T16:30:46;16.50;99.90
63960;DHT22;50136;51.374;0.096;2023-08-31T16:40:48;16.40;99.90
63960;DHT22;50136;51.374;0.096;2023-08-31T16:50:52;16.10;99.90
63960;DHT22;50136;51.374;0.096;2023-08-31T17:00:54;16.00;99.90
63960;DHT22;50136;51.374;0.096;2023-08-31T17:10:58;15.70;99.90
63960;DHT22;50136;51.374;0.096;2023-08-31T17:21:00;15.40;99.90
63960;DHT22;50136;51.374;0.096;2023-08-31T17:31:03;15.60;99.90
63960;DHT22;50136;51.374;0.096;2023-08-31T17:41:05;15.60;99.90
63960;DHT22;50136;51.374;0.096;2023-08-31T17:51:09;15.50;99.90
63960;DHT22;50136;51.374;0.096;2023-08-31T18:01:14;15.50;99.90
63960;DHT22;50136;51.374;0.096;2023-08-31T18:11:17;15.30;99.90
63960;DHT22;50136;51.374;0.096;2023-08-31T18:21:19;15.50;99.90
63960;DHT22;50136;51.374;0.096;2023-08-31T18:31:23;15.50;99.90
63960;DHT22;50136;51.374;0.096;2023-08-31T18:41:25;15.50;99.90
63960;DHT22;50136;51.374;0.096;2023-08-31T18:51:29;15.50;99.90
63960;DHT22;50136;51.374;0.096;2023-08-31T19:01:31;15.60;99.90
63960;DHT22;50136;51.374;0.096;2023-08-31T19:11:35;15.60;99.90
63960;DHT22;50136;51.374;0.096;2023-08-31T19:21:37;15.40;99.90
63960;DHT22;50136;51.374;0.096;2023-08-31T19:31:40;15.30;99.90
63960;DHT22;50136;51.374;0.096;2023-08-31T19:41:42;15.30;99.90
63960;DHT22;50136;51.374;0.096;2023-08-31T19:51:46;15.30;99.90
63960;DHT22;50136;51.374;0.096;2023-08-31T20:01:48;15.30;99.90
63960;DHT22;50136;51.374;0.096;2023-08-31T20:11:51;15.40;99.90
63960;DHT22;50136;51.374;0.096;2023-08-31T20:21:53;15.40;99.90
63960;DHT22;50136;51.374;0.096;2023-08-31T20:31:57;15.50;99.90
63960;DHT22;50136;51.374;0.096;2023-08-31T20:42:00;15.50;99.90
63960;DHT22;50136;51.374;0.096;2023-08-31T20:52:04;15.50;99.90
63960;DHT22;50136;51.374;0.096;2023-08-31T21:02:06;15.50;99.90
63960;DHT22;50136;51.374;0.096;2023-08-31T21:12:09;15.40;99.90
63960;DHT22;50136;51.374;0.096;2023-08-31T21:22:11;15.30;99.90
63960;DHT22;50136;51.374;0.096;2023-08-31T21:32:14;15.40;99.90
63960;DHT22;50136;51.374;0.096;2023-08-31T21:42:16;15.40;99.90
63960;DHT22;50136;51.374;0.096;2023-08-31T21:52:20;15.30;99.90
63960;DHT22;50136;51.374;0.096;2023-08-31T22:02:22;15.20;99.90
63960;DHT22;50136;51.374;0.096;2023-08-31T22:12:25;15.20;99.90
63960;DHT22;50136;51.374;0.096;2023-08-31T22:22:27;15.20;99.90
63960;DHT22;50136;51.374;0.096;2023-08-31T22:32:31;15.20;99.90
63960;DHT22;50136;51.374;0.096;2023-08-31T22:42:33;15.20;99.90
63960;DHT22;50136;51.374;0.096;2023-08-31T22:52:37;15.30;99.90
63960;DHT22;50136;51.374;0.096;2023-08-31T23:02:39;15.30;99.90
63960;DHT22;50136;51.374;0.096;2023-08-31T23:12:43;15.40;99.90
63960;DHT22;50136;51.374;0.096;2023-08-31T23:22:45;15.40;99.90
63960;DHT22;50136;51.374;0.096;2023-08-31T23:32:49;15.50;99.90
63960;DHT22;50136;51.374;0.096;2023-08-31T23:42:51;15.50;99.90
63960;DHT22;50136;51.374;0.096;2023-08-31T23:52:54;15.60;99.90
